createdAt,value
2022-10-10T00:01:10.906Z,22.60
2022-10-10T00:03:39.961Z,21.00
2022-10-10T00:06:09.541Z,21.92
2022-10-10T00:08:41.698Z,21.92
2022-10-10T00:11:10.229Z,20.25
2022-10-10T00:13:43.305Z,19.83
2022-10-10T00:16:45.879Z,20.52
2022-10-10T00:19:13.758Z,17.90
2022-10-10T00:21:41.960Z,18.15
2022-10-10T00:24:10.432Z,19.17
2022-10-10T00:26:38.405Z,18.02
2022-10-10T00:29:07.619Z,16.70
2022-10-10T00:31:35.493Z,17.45
2022-10-10T00:34:03.442Z,16.30
2022-10-10T00:36:49.373Z,17.02
2022-10-10T00:39:17.201Z,15.40
2022-10-10T00:41:45.342Z,16.55
2022-10-10T00:44:21.766Z,16.85
2022-10-10T00:46:49.761Z,17.50
2022-10-10T00:49:20.527Z,16.85
2022-10-10T00:51:52.162Z,15.25
2022-10-10T00:54:40.700Z,15.98
2022-10-10T01:00:40.720Z,16.55
2022-10-10T01:03:14.225Z,15.90
2022-10-10T01:05:44.364Z,14.27
2022-10-10T01:08:14.571Z,14.82
2022-10-10T01:10:53.990Z,14.50
2022-10-10T01:13:29.354Z,15.02
2022-10-10T01:16:23.946Z,15.77
2022-10-10T01:19:01.274Z,13.93
2022-10-10T01:21:36.552Z,15.70
2022-10-10T01:24:29.998Z,14.45
2022-10-10T01:27:19.155Z,14.32
2022-10-10T01:29:53.225Z,14.73
2022-10-10T01:32:29.560Z,14.18
2022-10-10T01:35:07.965Z,13.63
2022-10-10T01:37:43.127Z,13.95
2022-10-10T01:40:18.902Z,13.55
2022-10-10T01:42:52.129Z,13.63
2022-10-10T01:45:50.270Z,13.50
2022-10-10T01:48:40.291Z,14.07
2022-10-10T01:51:42.063Z,11.93
2022-10-10T01:54:21.250Z,13.18
2022-10-10T01:57:01.123Z,12.95
2022-10-10T01:59:40.369Z,13.68
2022-10-10T02:02:19.080Z,13.00
2022-10-10T02:04:50.917Z,12.43
2022-10-10T02:07:25.047Z,13.07
2022-10-10T02:09:54.971Z,13.48
2022-10-10T02:12:24.320Z,14.10
2022-10-10T02:14:56.385Z,12.57
2022-10-10T02:17:27.805Z,13.25
2022-10-10T02:19:58.257Z,12.45
2022-10-10T02:22:29.210Z,14.38
2022-10-10T02:24:57.438Z,13.90
2022-10-10T02:27:33.476Z,13.32
2022-10-10T02:30:05.209Z,11.70
2022-10-10T02:32:40.337Z,12.70
2022-10-10T02:35:11.384Z,11.63
2022-10-10T02:37:42.535Z,10.52
2022-10-10T02:40:27.499Z,12.18
2022-10-10T02:42:58.299Z,10.55
2022-10-10T02:45:28.608Z,11.68
2022-10-10T02:48:04.390Z,11.23
2022-10-10T02:50:47.073Z,11.23
2022-10-10T02:53:15.089Z,11.27
2022-10-10T02:55:42.915Z,11.20
2022-10-10T02:58:10.779Z,12.68
2022-10-10T03:00:42.033Z,11.55
2022-10-10T03:03:40.538Z,12.43
2022-10-10T03:06:09.957Z,11.25
2022-10-10T03:08:38.918Z,11.13
2022-10-10T03:11:07.265Z,11.75
2022-10-10T03:13:42.658Z,12.43
2022-10-10T03:16:45.050Z,13.13
2022-10-10T03:19:13.011Z,12.73
2022-10-10T03:21:42.144Z,12.68
2022-10-10T03:24:44.485Z,12.23
2022-10-10T03:27:46.832Z,11.20
2022-10-10T03:30:41.842Z,11.90
2022-10-10T03:33:10.481Z,11.00
2022-10-10T03:35:41.970Z,12.15
2022-10-10T03:38:12.333Z,13.13
2022-10-10T03:40:41.833Z,12.07
2022-10-10T03:43:10.283Z,11.80
2022-10-10T03:45:52.781Z,11.02
2022-10-10T03:48:31.241Z,12.13
2022-10-10T03:51:40.937Z,11.38
2022-10-10T03:54:10.349Z,10.60
2022-10-10T03:56:42.641Z,10.60
2022-10-10T03:59:10.753Z,11.00
2022-10-10T04:01:49.305Z,11.02
2022-10-10T04:10:11.970Z,10.00
2022-10-10T04:12:41.485Z,12.13
2022-10-10T04:15:10.384Z,11.88
2022-10-10T04:17:41.602Z,11.55
2022-10-10T04:20:10.081Z,12.13
2022-10-10T04:22:37.850Z,10.63
2022-10-10T04:28:24.236Z,10.40
2022-10-10T04:30:52.689Z,10.35
2022-10-10T04:33:20.398Z,9.75
2022-10-10T04:35:50.066Z,10.15
2022-10-10T04:39:12.920Z,10.20
2022-10-10T04:41:57.098Z,11.30
2022-10-10T04:44:28.423Z,11.15
2022-10-10T04:46:56.295Z,11.48
2022-10-10T04:49:24.134Z,11.07
2022-10-10T04:51:52.231Z,14.27
2022-10-10T04:54:19.997Z,12.77
2022-10-10T04:56:47.906Z,14.20
2022-10-10T04:59:15.770Z,13.75
2022-10-10T05:01:45.011Z,15.18
2022-10-10T05:04:13.096Z,14.57
2022-10-10T05:06:41.177Z,15.85
2022-10-10T05:09:09.106Z,15.07
2022-10-10T05:11:37.095Z,16.50
2022-10-10T05:14:05.268Z,16.10
2022-10-10T05:16:33.181Z,15.38
2022-10-10T05:19:02.369Z,15.45
2022-10-10T05:21:31.638Z,15.02
2022-10-10T05:23:59.353Z,17.33
2022-10-10T05:26:27.821Z,16.75
2022-10-10T05:28:55.696Z,17.95
2022-10-10T05:31:23.692Z,19.83
2022-10-10T05:33:51.438Z,18.45
2022-10-10T05:36:20.832Z,19.67
2022-10-10T05:38:48.529Z,18.55
2022-10-10T05:41:16.400Z,18.52
2022-10-10T05:43:44.614Z,17.27
2022-10-10T05:46:12.611Z,16.65
2022-10-10T05:48:40.817Z,17.30
2022-10-10T05:51:08.820Z,15.02
2022-10-10T05:53:37.876Z,15.73
2022-10-10T05:56:06.198Z,19.77
2022-10-10T05:58:34.102Z,25.15
2022-10-10T06:01:05.510Z,23.83
2022-10-10T06:03:33.830Z,22.13
2022-10-10T06:06:02.229Z,20.45
2022-10-10T06:08:31.153Z,19.75
2022-10-10T06:11:05.234Z,17.85
2022-10-10T06:13:33.569Z,19.98
2022-10-10T06:16:01.465Z,21.98
2022-10-10T06:18:29.230Z,21.50
2022-10-10T06:21:02.417Z,21.83
2022-10-10T06:23:30.159Z,22.65
2022-10-10T06:25:58.490Z,20.88
2022-10-10T06:28:27.682Z,20.95
2022-10-10T06:30:55.646Z,18.45
2022-10-10T06:33:23.840Z,22.85
2022-10-10T06:35:51.713Z,22.60
2022-10-10T06:38:19.436Z,21.73
2022-10-10T06:40:47.973Z,21.90
2022-10-10T06:43:17.293Z,21.80
2022-10-10T06:45:50.666Z,22.30
2022-10-10T06:48:18.477Z,19.38
2022-10-10T06:50:56.926Z,18.58
2022-10-10T06:53:24.735Z,20.15
2022-10-10T06:55:53.833Z,19.73
2022-10-10T06:58:21.981Z,16.73
2022-10-10T07:00:53.025Z,15.70
2022-10-10T07:03:21.712Z,17.33
2022-10-10T07:05:52.225Z,16.88
2022-10-10T07:08:20.699Z,17.45
2022-10-10T07:10:48.931Z,18.15
2022-10-10T07:13:17.193Z,16.52
2022-10-10T07:15:45.360Z,17.67
2022-10-10T07:18:15.121Z,16.55
2022-10-10T07:20:43.058Z,18.42
2022-10-10T07:23:11.173Z,15.57
2022-10-10T07:25:40.303Z,14.93
2022-10-10T07:28:09.030Z,15.15
2022-10-10T07:30:40.933Z,14.35
2022-10-10T07:33:08.715Z,13.43
2022-10-10T07:35:37.975Z,13.48
2022-10-10T07:38:06.456Z,12.77
2022-10-10T07:40:34.469Z,12.23
2022-10-10T07:43:02.160Z,11.20
2022-10-10T07:45:30.149Z,10.32
2022-10-10T07:47:58.106Z,10.02
2022-10-10T07:50:26.024Z,9.70
2022-10-10T07:52:55.242Z,11.15
2022-10-10T07:55:23.126Z,7.47
2022-10-10T07:57:53.414Z,8.88
2022-10-10T08:00:21.986Z,9.68
2022-10-10T08:02:50.803Z,6.88
2022-10-10T08:05:18.807Z,6.82
2022-10-10T08:07:47.146Z,6.30
2022-10-10T08:10:17.417Z,6.03
2022-10-10T08:12:45.385Z,6.72
2022-10-10T08:15:13.947Z,5.80
2022-10-10T08:17:41.831Z,5.70
2022-10-10T08:20:10.526Z,5.80
2022-10-10T08:22:38.381Z,5.10
2022-10-10T08:25:07.378Z,5.07
2022-10-10T08:27:36.527Z,4.82
2022-10-10T08:30:05.335Z,5.25
2022-10-10T08:32:33.119Z,4.93
2022-10-10T08:35:00.994Z,4.30
2022-10-10T08:37:32.777Z,4.18
2022-10-10T08:40:04.999Z,4.65
2022-10-10T08:42:45.586Z,4.15
2022-10-10T08:45:19.005Z,4.18
2022-10-10T08:47:52.182Z,3.85
2022-10-10T08:50:24.916Z,4.72
2022-10-10T08:52:58.004Z,3.78
2022-10-10T08:55:33.380Z,3.25
2022-10-10T08:58:08.569Z,3.58
2022-10-10T09:00:41.337Z,3.40
2022-10-10T09:03:20.862Z,2.90
2022-10-10T09:06:02.920Z,2.83
2022-10-10T09:08:41.822Z,3.53
2022-10-10T09:11:18.073Z,3.00
2022-10-10T09:13:59.262Z,3.20
2022-10-10T09:16:37.829Z,3.38
2022-10-10T09:19:17.501Z,3.80
2022-10-10T09:21:47.255Z,3.45
2022-10-10T09:24:20.918Z,3.30
2022-10-10T09:26:52.177Z,2.85
2022-10-10T09:29:30.010Z,2.87
2022-10-10T09:32:02.422Z,2.60
2022-10-10T09:34:35.167Z,2.47
2022-10-10T09:37:04.686Z,2.83
2022-10-10T09:39:39.602Z,2.65
2022-10-10T09:42:13.033Z,3.28
2022-10-10T09:44:43.510Z,2.70
2022-10-10T09:47:14.855Z,2.50
2022-10-10T09:49:42.949Z,2.53
2022-10-10T09:52:24.260Z,2.30
2022-10-10T09:54:56.290Z,2.10
2022-10-10T09:59:56.125Z,2.60
2022-10-10T10:02:26.201Z,2.20
2022-10-10T10:04:54.733Z,2.83
2022-10-10T10:07:27.559Z,2.28
2022-10-10T10:09:59.164Z,2.58
2022-10-10T10:12:30.174Z,2.65
2022-10-10T10:15:04.333Z,3.28
2022-10-10T10:17:32.866Z,2.60
2022-10-10T10:20:00.545Z,2.55
2022-10-10T10:22:34.772Z,2.88
2022-10-10T10:25:32.533Z,2.38
2022-10-10T10:28:20.726Z,3.78
2022-10-10T10:30:53.414Z,4.03
2022-10-10T10:33:37.635Z,4.03
2022-10-10T10:36:14.243Z,4.30
2022-10-10T10:38:45.719Z,4.25
2022-10-10T10:41:24.313Z,5.47
2022-10-10T10:44:06.437Z,5.10
2022-10-10T10:49:18.759Z,2.97
2022-10-10T10:52:08.533Z,2.85
2022-10-10T10:54:50.078Z,2.60
2022-10-10T10:57:37.108Z,2.55
2022-10-10T11:00:21.727Z,2.88
2022-10-10T11:03:34.954Z,3.55
2022-10-10T11:06:13.093Z,3.30
2022-10-10T11:08:53.153Z,3.15
2022-10-10T11:11:34.461Z,3.83
2022-10-10T11:14:10.601Z,2.30
2022-10-10T11:16:48.530Z,2.75
2022-10-10T11:19:29.081Z,2.67
2022-10-10T11:22:04.220Z,3.00
2022-10-10T11:24:42.294Z,2.53
2022-10-10T11:27:16.932Z,2.65
2022-10-10T11:30:01.162Z,2.60
2022-10-10T11:32:33.534Z,3.20
2022-10-10T11:35:13.336Z,2.80
2022-10-10T11:37:47.291Z,2.95
2022-10-10T11:40:33.700Z,3.15
2022-10-10T11:43:06.219Z,2.60
2022-10-10T11:45:39.002Z,3.33
2022-10-10T11:48:18.981Z,3.03
2022-10-10T11:50:54.005Z,3.63
2022-10-10T11:53:27.888Z,3.17
2022-10-10T11:56:00.070Z,3.58
2022-10-10T11:58:34.275Z,2.78
2022-10-10T12:01:06.994Z,2.92
2022-10-10T12:03:35.213Z,3.00
2022-10-10T12:06:13.379Z,3.20
2022-10-10T12:08:47.605Z,3.15
2022-10-10T12:11:20.674Z,2.97
2022-10-10T12:13:54.273Z,3.58
2022-10-10T12:16:29.567Z,3.53
2022-10-10T12:19:03.273Z,3.70
2022-10-10T12:21:50.929Z,3.03
2022-10-10T12:24:19.394Z,3.67
2022-10-10T12:27:27.470Z,3.58
2022-10-10T12:30:19.454Z,3.05
2022-10-10T12:32:50.117Z,3.78
2022-10-10T12:35:42.280Z,3.42
2022-10-10T12:38:21.550Z,3.85
2022-10-10T12:41:14.528Z,3.50
2022-10-10T12:44:13.201Z,3.45
2022-10-10T12:46:43.672Z,3.33
2022-10-10T12:49:22.509Z,3.08
2022-10-10T12:52:02.252Z,3.40
2022-10-10T12:54:33.123Z,3.38
2022-10-10T12:57:10.505Z,3.45
2022-10-10T12:59:39.700Z,3.50
2022-10-10T13:02:17.568Z,3.50
2022-10-10T13:04:47.569Z,3.25
2022-10-10T13:07:18.959Z,3.35
2022-10-10T13:09:49.378Z,3.45
2022-10-10T13:12:28.305Z,3.15
2022-10-10T13:14:57.423Z,3.55
2022-10-10T13:17:29.467Z,3.63
2022-10-10T13:19:58.790Z,3.20
2022-10-10T13:22:28.358Z,3.85
2022-10-10T13:24:56.689Z,3.83
2022-10-10T13:27:28.129Z,3.60
2022-10-10T13:29:56.960Z,3.72
2022-10-10T13:32:29.243Z,4.30
2022-10-10T13:35:00.242Z,3.58
2022-10-10T13:37:29.396Z,3.43
2022-10-10T13:39:57.873Z,3.45
2022-10-10T13:42:33.509Z,3.65
2022-10-10T13:45:03.238Z,3.63
2022-10-10T13:47:51.448Z,3.17
2022-10-10T13:50:26.669Z,3.08
2022-10-10T13:53:24.057Z,3.28
2022-10-10T13:55:58.804Z,3.25
2022-10-10T13:58:27.679Z,3.47
2022-10-10T14:00:57.305Z,3.03
2022-10-10T14:03:27.606Z,3.47
2022-10-10T14:05:55.600Z,3.42
2022-10-10T14:08:28.262Z,3.70
2022-10-10T14:10:58.298Z,3.15
2022-10-10T14:13:26.376Z,3.60
2022-10-10T14:15:54.481Z,3.30
2022-10-10T14:18:24.574Z,3.25
2022-10-10T14:20:55.567Z,4.32
2022-10-10T14:23:23.749Z,3.72
2022-10-10T14:25:51.613Z,3.78
2022-10-10T14:28:22.556Z,3.60
2022-10-10T14:30:50.569Z,4.43
2022-10-10T14:33:20.332Z,4.65
2022-10-10T14:35:51.665Z,4.00
2022-10-10T14:38:21.165Z,3.33
2022-10-10T14:40:50.696Z,3.88
2022-10-10T14:43:22.574Z,3.97
2022-10-10T14:45:51.722Z,4.10
2022-10-10T14:48:20.406Z,3.75
2022-10-10T14:50:49.465Z,3.65
2022-10-10T14:53:18.004Z,3.15
2022-10-10T14:55:47.657Z,4.55
2022-10-10T14:58:18.739Z,4.00
2022-10-10T15:00:47.252Z,4.32
2022-10-10T15:03:15.730Z,4.55
2022-10-10T15:05:43.714Z,4.57
2022-10-10T15:08:14.186Z,5.07
2022-10-10T15:10:42.425Z,4.30
2022-10-10T15:13:12.500Z,4.70
2022-10-10T15:15:41.009Z,4.32
2022-10-10T15:18:25.607Z,4.00
2022-10-10T15:20:57.773Z,5.70
2022-10-10T15:23:26.952Z,5.15
2022-10-10T15:25:54.763Z,6.60
2022-10-10T15:28:24.358Z,10.30
2022-10-10T15:30:52.694Z,9.30
2022-10-10T15:33:20.381Z,9.88
2022-10-10T15:36:09.101Z,13.65
2022-10-10T15:38:37.850Z,9.90
2022-10-10T15:41:08.918Z,8.60
2022-10-10T15:43:45.130Z,6.45
2022-10-10T15:46:13.589Z,16.02
2022-10-10T15:48:41.327Z,36.75
2022-10-10T15:51:09.644Z,65.75
2022-10-10T15:53:38.144Z,99.55
2022-10-10T15:56:10.105Z,54.40
2022-10-10T15:58:41.144Z,24.35
2022-10-10T16:01:13.568Z,10.68
2022-10-10T16:03:41.937Z,6.68
2022-10-10T16:06:10.305Z,6.03
2022-10-10T16:08:38.974Z,8.75
2022-10-10T16:11:08.189Z,10.43
2022-10-10T16:13:37.128Z,9.88
2022-10-10T16:16:08.818Z,12.15
2022-10-10T16:18:40.304Z,13.00
2022-10-10T16:21:10.521Z,13.13
2022-10-10T16:23:38.797Z,10.70
2022-10-10T16:26:08.831Z,10.95
2022-10-10T16:28:36.922Z,11.75
2022-10-10T16:31:09.010Z,11.38
2022-10-10T16:33:39.185Z,10.63
2022-10-10T16:36:09.977Z,10.30
2022-10-10T16:38:38.322Z,8.05
2022-10-10T16:41:19.663Z,8.45
2022-10-10T16:43:56.852Z,9.10
2022-10-10T16:46:27.726Z,8.23
2022-10-10T16:48:58.140Z,8.57
2022-10-10T16:51:28.391Z,8.98
2022-10-10T16:53:56.449Z,9.57
2022-10-10T16:56:24.348Z,9.30
2022-10-10T16:58:52.438Z,12.82
2022-10-10T17:01:22.293Z,11.80
2022-10-10T17:03:52.587Z,11.57
2022-10-10T17:06:23.289Z,11.98
2022-10-10T17:08:52.844Z,10.95
2022-10-10T17:11:22.826Z,11.45
2022-10-10T17:13:51.816Z,10.63
2022-10-10T17:16:59.713Z,11.13
2022-10-10T17:19:11.641Z,11.73
2022-10-10T17:21:39.721Z,10.57
2022-10-10T17:24:07.846Z,11.52
2022-10-10T17:26:35.870Z,13.63
2022-10-10T17:29:03.767Z,14.57
2022-10-10T17:31:31.511Z,11.82
2022-10-10T17:33:59.565Z,11.82
2022-10-10T17:36:29.474Z,17.98
2022-10-10T17:39:00.075Z,16.73
2022-10-10T17:41:29.627Z,15.88
2022-10-10T17:43:57.445Z,14.43
2022-10-10T17:46:36.327Z,14.93
2022-10-10T17:49:06.665Z,14.82
2022-10-10T17:51:37.030Z,17.52
2022-10-10T17:54:06.305Z,17.92
2022-10-10T17:56:35.221Z,19.17
2022-10-10T17:59:06.166Z,19.38
2022-10-10T18:01:35.060Z,18.33
2022-10-10T18:04:03.352Z,19.83
2022-10-10T18:06:31.881Z,18.88
2022-10-10T18:09:01.390Z,21.83
2022-10-10T18:11:31.731Z,39.13
2022-10-10T18:14:01.241Z,32.75
2022-10-10T18:16:32.397Z,31.17
2022-10-10T18:19:00.986Z,22.60
2022-10-10T18:21:29.123Z,23.27
2022-10-10T18:23:57.624Z,21.02
2022-10-10T18:26:30.062Z,23.08
2022-10-10T18:28:58.514Z,18.92
2022-10-10T18:31:28.302Z,20.45
2022-10-10T18:33:56.934Z,20.25
2022-10-10T18:36:27.073Z,19.13
2022-10-10T18:38:55.101Z,21.08
2022-10-10T18:41:25.154Z,19.88
2022-10-10T18:43:56.968Z,22.70
2022-10-10T18:46:25.649Z,20.00
2022-10-10T18:48:54.365Z,20.48
2022-10-10T18:51:25.133Z,28.50
2022-10-10T18:53:56.876Z,28.85
2022-10-10T18:56:25.209Z,34.58
2022-10-10T18:58:57.566Z,28.77
2022-10-10T19:01:28.138Z,31.20
2022-10-10T19:03:56.419Z,33.00
2022-10-10T19:06:25.644Z,34.22
2022-10-10T19:08:56.334Z,28.98
2022-10-10T19:11:27.450Z,27.50
2022-10-10T19:13:57.337Z,23.83
2022-10-10T19:16:25.218Z,27.55
2022-10-10T19:18:57.536Z,24.65
2022-10-10T19:21:27.468Z,25.27
2022-10-10T19:23:55.275Z,25.83
2022-10-10T19:26:23.455Z,25.52
2022-10-10T19:28:51.877Z,23.65
2022-10-10T19:31:22.502Z,24.48
2022-10-10T19:33:53.142Z,24.05
2022-10-10T19:36:21.366Z,22.38
2022-10-10T19:38:49.290Z,24.40
2022-10-10T19:41:17.709Z,24.02
2022-10-10T19:43:48.826Z,24.45
2022-10-10T19:46:18.314Z,23.85
2022-10-10T19:48:47.886Z,25.02
2022-10-10T19:51:16.956Z,24.60
2022-10-10T19:53:46.140Z,27.48
2022-10-10T19:56:16.454Z,27.83
2022-10-10T19:58:44.464Z,27.63
2022-10-10T20:01:14.839Z,25.90
2022-10-10T20:03:43.843Z,25.88
2022-10-10T20:06:13.235Z,25.08
2022-10-10T20:08:41.987Z,25.60
2022-10-10T20:11:10.459Z,24.88
2022-10-10T20:13:38.178Z,25.65
2022-10-10T20:16:09.272Z,25.15
2022-10-10T20:18:39.709Z,26.48
2022-10-10T20:21:15.560Z,24.23
2022-10-10T20:23:46.643Z,25.58
2022-10-10T20:26:16.360Z,25.77
2022-10-10T20:28:45.310Z,26.42
2022-10-10T20:31:19.868Z,29.08
2022-10-10T20:33:48.055Z,27.85
2022-10-10T20:36:16.842Z,32.90
2022-10-10T20:38:46.406Z,43.42
2022-10-10T20:41:14.294Z,32.42
2022-10-10T20:43:42.451Z,36.15
2022-10-10T20:46:12.868Z,34.78
2022-10-10T20:48:41.194Z,31.58
2022-10-10T20:51:12.292Z,30.88
2022-10-10T20:53:42.355Z,28.35
2022-10-10T20:56:13.466Z,30.25
2022-10-10T20:58:41.822Z,29.67
2022-10-10T21:01:11.549Z,29.20
2022-10-10T21:03:41.240Z,27.75
2022-10-10T21:06:11.318Z,27.92
2022-10-10T21:08:39.436Z,29.02
2022-10-10T21:11:08.789Z,24.85
2022-10-10T21:13:40.242Z,25.08
2022-10-10T21:16:10.742Z,25.13
2022-10-10T21:18:38.704Z,25.60
2022-10-10T21:21:08.328Z,26.95
2022-10-10T21:23:38.400Z,26.27
2022-10-10T21:26:07.186Z,27.27
2022-10-10T21:28:36.329Z,28.00
2022-10-10T21:31:06.326Z,27.27
2022-10-10T21:33:35.310Z,26.17
2022-10-10T21:36:03.371Z,27.80
2022-10-10T21:38:31.535Z,27.25
2022-10-10T21:41:06.544Z,27.85
2022-10-10T21:43:35.218Z,26.55
2022-10-10T21:46:05.878Z,28.88
2022-10-10T21:48:33.968Z,28.45
2022-10-10T21:51:02.828Z,26.77
2022-10-10T21:53:30.805Z,24.83
2022-10-10T21:55:58.907Z,25.23
2022-10-10T21:58:27.257Z,25.45
2022-10-10T22:00:55.055Z,27.48
2022-10-10T22:03:24.104Z,27.85
2022-10-10T22:05:52.074Z,28.23
2022-10-10T22:08:19.772Z,27.45
2022-10-10T22:10:48.873Z,27.48
2022-10-10T22:13:16.918Z,27.45
2022-10-10T22:15:44.745Z,26.17
2022-10-10T22:18:12.666Z,26.02
2022-10-10T22:20:41.979Z,28.52
2022-10-10T22:23:09.750Z,27.52
2022-10-10T22:25:37.565Z,25.63
2022-10-10T22:28:06.491Z,25.23
2022-10-10T22:30:34.313Z,23.48
2022-10-10T22:33:02.093Z,21.30
2022-10-10T22:35:30.424Z,22.13
2022-10-10T22:37:59.477Z,22.75
2022-10-10T22:40:27.467Z,21.20
2022-10-10T22:42:55.442Z,20.45
2022-10-10T22:45:23.763Z,21.75
2022-10-10T22:47:51.995Z,22.25
2022-10-10T22:50:20.130Z,22.75
2022-10-10T22:52:48.239Z,19.83
2022-10-10T22:55:18.933Z,20.20
2022-10-10T22:57:47.093Z,21.48
2022-10-10T23:00:16.516Z,19.45
2022-10-10T23:02:44.799Z,20.48
2022-10-10T23:05:13.250Z,20.25
2022-10-10T23:07:41.188Z,20.35
2022-10-10T23:10:10.078Z,20.20
2022-10-10T23:12:39.436Z,21.45
2022-10-10T23:15:08.222Z,19.30
2022-10-10T23:17:36.149Z,19.70
2022-10-10T23:20:04.586Z,17.30
2022-10-10T23:22:32.539Z,19.95
2022-10-10T23:25:00.463Z,17.88
2022-10-10T23:27:28.473Z,16.50
2022-10-10T23:29:57.829Z,13.35
2022-10-10T23:32:29.387Z,12.93
2022-10-10T23:34:57.873Z,13.95
2022-10-10T23:37:27.618Z,12.50
2022-10-10T23:39:55.381Z,12.80
2022-10-10T23:42:23.828Z,13.02
2022-10-10T23:44:51.591Z,13.60
2022-10-10T23:47:20.642Z,14.27
2022-10-10T23:49:48.645Z,14.48
2022-10-10T23:52:16.808Z,14.43
2022-10-10T23:54:44.686Z,15.52
2022-10-10T23:57:12.713Z,15.75
2022-10-10T23:59:40.430Z,13.50
